createdAt,value
2019-05-23T00:01:57.743Z,12.52
2019-05-23T00:04:44.243Z,12.49
2019-05-23T00:07:17.240Z,12.47
2019-05-23T00:09:47.307Z,12.39
2019-05-23T00:12:35.573Z,12.42
2019-05-23T00:15:08.912Z,12.34
2019-05-23T00:17:39.300Z,12.39
2019-05-23T00:20:10.434Z,12.38
2019-05-23T00:22:39.390Z,12.30
2019-05-23T00:25:10.281Z,12.31
2019-05-23T00:27:40.857Z,12.28
2019-05-23T00:30:13.241Z,12.29
2019-05-23T00:32:49.570Z,12.29
2019-05-23T00:38:13.516Z,12.26
2019-05-23T00:40:43.618Z,12.21
2019-05-23T00:43:12.992Z,12.20
2019-05-23T00:45:43.321Z,12.23
2019-05-23T00:48:12.595Z,12.25
2019-05-23T00:50:43.383Z,12.20
2019-05-23T00:53:13.456Z,12.12
2019-05-23T00:55:42.099Z,12.15
2019-05-23T00:58:12.058Z,12.13
2019-05-23T01:00:40.694Z,12.05
2019-05-23T01:03:11.593Z,12.06
2019-05-23T01:05:41.801Z,12.07
2019-05-23T01:08:10.914Z,12.08
2019-05-23T01:10:39.657Z,12.07
2019-05-23T01:13:10.645Z,12.12
2019-05-23T01:15:41.889Z,12.14
2019-05-23T01:18:10.680Z,12.06
2019-05-23T01:20:47.012Z,11.97
2019-05-23T01:23:17.172Z,12.03
2019-05-23T01:25:47.009Z,11.97
2019-05-23T01:28:15.732Z,11.99
2019-05-23T01:30:49.025Z,11.90
2019-05-23T01:33:18.574Z,11.97
2019-05-23T01:35:48.388Z,11.99
2019-05-23T01:38:18.858Z,11.96
2019-05-23T01:40:47.600Z,11.89
2019-05-23T01:43:18.027Z,11.89
2019-05-23T01:45:46.687Z,11.78
2019-05-23T01:48:15.915Z,11.79
2019-05-23T01:50:44.476Z,11.75
2019-05-23T01:53:13.517Z,11.73
2019-05-23T01:55:42.534Z,11.61
2019-05-23T01:58:11.439Z,11.58
2019-05-23T02:00:40.195Z,11.64
2019-05-23T02:03:09.181Z,11.64
2019-05-23T02:05:38.426Z,11.58
2019-05-23T02:08:09.223Z,11.54
2019-05-23T02:10:38.230Z,11.47
2019-05-23T02:13:09.307Z,11.52
2019-05-23T02:15:37.758Z,11.51
2019-05-23T02:18:06.479Z,11.42
2019-05-23T02:20:35.355Z,11.44
2019-05-23T02:23:04.679Z,11.35
2019-05-23T02:25:35.636Z,11.36
2019-05-23T02:28:05.045Z,11.29
2019-05-23T02:30:35.931Z,11.30
2019-05-23T02:33:05.774Z,11.39
2019-05-23T02:35:35.498Z,11.27
2019-05-23T02:38:06.249Z,11.29
2019-05-23T02:40:40.252Z,11.23
2019-05-23T02:43:17.056Z,11.24
2019-05-23T02:45:53.323Z,11.22
2019-05-23T02:48:24.315Z,11.20
2019-05-23T02:51:07.265Z,11.14
2019-05-23T02:53:37.535Z,11.16
2019-05-23T02:59:35.398Z,11.19
2019-05-23T03:02:40.246Z,11.14
2019-05-23T03:05:15.431Z,11.15
2019-05-23T03:07:45.297Z,11.11
2019-05-23T03:10:16.036Z,11.16
2019-05-23T03:12:46.526Z,11.04
2019-05-23T03:15:17.236Z,11.02
2019-05-23T03:17:48.960Z,10.95
2019-05-23T03:20:19.399Z,10.92
2019-05-23T03:22:51.012Z,10.88
2019-05-23T03:25:39.398Z,10.77
2019-05-23T03:28:12.650Z,10.81
2019-05-23T03:30:48.430Z,10.73
2019-05-23T03:33:18.629Z,10.72
2019-05-23T03:35:51.664Z,10.72
2019-05-23T03:38:20.916Z,10.75
2019-05-23T03:40:49.766Z,10.67
2019-05-23T03:43:19.174Z,10.59
2019-05-23T03:45:52.642Z,10.63
2019-05-23T03:48:23.879Z,10.61
2019-05-23T03:50:55.269Z,10.61
2019-05-23T03:53:25.655Z,10.54
2019-05-23T03:55:54.329Z,10.53
2019-05-23T03:58:25.539Z,10.53
2019-05-23T04:00:54.897Z,10.47
2019-05-23T04:03:27.308Z,10.56
2019-05-23T04:05:57.088Z,10.29
2019-05-23T04:08:27.045Z,10.34
2019-05-23T04:10:56.385Z,10.33
2019-05-23T04:13:25.533Z,10.36
2019-05-23T04:15:54.291Z,10.34
2019-05-23T04:18:22.880Z,10.34
2019-05-23T04:20:51.959Z,10.28
2019-05-23T04:23:21.031Z,10.34
2019-05-23T04:25:50.157Z,10.21
2019-05-23T04:28:19.079Z,10.24
2019-05-23T04:30:47.981Z,10.19
2019-05-23T04:33:17.111Z,10.23
2019-05-23T04:35:45.754Z,10.07
2019-05-23T04:38:15.639Z,10.08
2019-05-23T04:40:44.454Z,10.10
2019-05-23T04:43:13.048Z,10.10
2019-05-23T04:45:42.471Z,10.24
2019-05-23T04:48:11.719Z,10.23
2019-05-23T04:50:41.357Z,10.28
2019-05-23T04:53:09.912Z,10.31
2019-05-23T04:55:39.690Z,10.35
2019-05-23T04:58:09.000Z,10.46
2019-05-23T05:00:38.233Z,10.55
2019-05-23T05:03:08.632Z,10.59
2019-05-23T05:05:37.821Z,10.65
2019-05-23T05:08:08.584Z,10.72
2019-05-23T05:10:37.445Z,10.77
2019-05-23T05:13:06.333Z,10.87
2019-05-23T05:15:35.546Z,10.93
2019-05-23T05:18:04.623Z,11.05
2019-05-23T05:20:33.306Z,11.13
2019-05-23T05:23:02.007Z,11.23
2019-05-23T05:25:31.322Z,11.31
2019-05-23T05:28:00.812Z,11.39
2019-05-23T05:30:29.733Z,11.46
2019-05-23T05:32:58.347Z,11.62
2019-05-23T05:35:27.399Z,11.68
2019-05-23T05:37:56.548Z,11.78
2019-05-23T05:40:26.080Z,11.97
2019-05-23T05:42:55.536Z,11.98
2019-05-23T05:45:24.199Z,12.14
2019-05-23T05:47:52.875Z,12.36
2019-05-23T05:50:23.614Z,12.51
2019-05-23T05:52:52.197Z,12.71
2019-05-23T05:55:21.225Z,12.86
2019-05-23T05:57:49.907Z,13.00
2019-05-23T06:00:21.317Z,13.27
2019-05-23T06:03:03.531Z,13.41
2019-05-23T06:08:13.955Z,13.84
2019-05-23T06:10:43.491Z,14.21
2019-05-23T06:13:12.667Z,14.40
2019-05-23T06:15:41.657Z,14.67
2019-05-23T06:18:10.950Z,14.89
2019-05-23T06:20:43.271Z,15.25
2019-05-23T06:23:15.652Z,15.47
2019-05-23T06:25:44.531Z,15.58
2019-05-23T06:28:14.807Z,16.17
2019-05-23T06:30:44.108Z,16.44
2019-05-23T06:33:22.530Z,16.93
2019-05-23T06:35:44.160Z,17.29
2019-05-23T06:38:12.735Z,17.45
2019-05-23T06:40:41.803Z,17.60
2019-05-23T06:43:12.154Z,17.95
2019-05-23T06:45:42.716Z,17.39
2019-05-23T06:48:14.350Z,17.96
2019-05-23T06:50:42.924Z,18.09
2019-05-23T06:53:11.810Z,18.15
2019-05-23T06:55:40.475Z,18.43
2019-05-23T06:58:13.211Z,18.98
2019-05-23T07:00:42.986Z,19.23
2019-05-23T07:03:12.575Z,19.40
2019-05-23T07:05:42.071Z,19.46
2019-05-23T07:08:10.645Z,19.84
2019-05-23T07:10:43.433Z,19.42
2019-05-23T07:13:12.873Z,20.05
2019-05-23T07:15:42.255Z,19.84
2019-05-23T07:18:11.202Z,20.89
2019-05-23T07:20:39.847Z,20.42
2019-05-23T07:23:11.453Z,20.44
2019-05-23T07:25:40.050Z,20.34
2019-05-23T07:28:08.650Z,20.21
2019-05-23T07:30:37.538Z,20.89
2019-05-23T07:33:06.096Z,21.17
2019-05-23T07:35:35.067Z,21.06
2019-05-23T07:38:03.773Z,20.82
2019-05-23T07:40:32.724Z,21.08
2019-05-23T07:43:01.453Z,20.99
2019-05-23T07:45:31.739Z,21.50
2019-05-23T07:48:00.563Z,22.68
2019-05-23T07:50:29.124Z,22.39
2019-05-23T07:52:59.668Z,22.17
2019-05-23T07:58:19.316Z,21.58
2019-05-23T08:00:52.407Z,21.74
2019-05-23T08:03:22.556Z,21.68
2019-05-23T08:05:51.132Z,22.10
2019-05-23T08:08:19.978Z,22.24
2019-05-23T08:10:48.577Z,22.33
2019-05-23T08:13:17.416Z,21.54
2019-05-23T08:15:46.783Z,22.34
2019-05-23T08:18:15.904Z,22.29
2019-05-23T08:20:46.285Z,21.15
2019-05-23T08:23:16.313Z,21.18
2019-05-23T08:25:45.100Z,21.59
2019-05-23T08:28:13.660Z,21.38
2019-05-23T08:30:42.504Z,21.69
2019-05-23T08:33:12.671Z,21.83
2019-05-23T08:35:41.320Z,22.28
2019-05-23T08:38:10.304Z,22.37
2019-05-23T08:40:39.800Z,22.88
2019-05-23T08:43:09.081Z,22.71
2019-05-23T08:45:37.721Z,23.47
2019-05-23T08:48:06.523Z,23.86
2019-05-23T08:50:35.174Z,23.91
2019-05-23T08:53:04.064Z,23.99
2019-05-23T08:55:33.396Z,23.93
2019-05-23T08:58:02.801Z,23.26
2019-05-23T09:00:33.082Z,24.48
2019-05-23T09:03:03.908Z,24.52
2019-05-23T09:05:37.103Z,24.60
2019-05-23T09:08:08.513Z,24.17
2019-05-23T09:10:39.230Z,24.32
2019-05-23T09:13:08.707Z,24.39
2019-05-23T09:15:37.530Z,24.19
2019-05-23T09:18:07.177Z,23.97
2019-05-23T09:20:36.401Z,24.25
2019-05-23T09:23:05.482Z,25.02
2019-05-23T09:25:34.139Z,24.42
2019-05-23T09:28:03.621Z,23.77
2019-05-23T09:30:32.562Z,24.35
2019-05-23T09:33:01.787Z,25.05
2019-05-23T09:35:30.560Z,24.78
2019-05-23T09:37:59.199Z,24.05
2019-05-23T09:40:27.735Z,24.63
2019-05-23T09:42:56.296Z,24.75
2019-05-23T09:45:25.239Z,25.12
2019-05-23T09:47:53.757Z,24.70
2019-05-23T09:50:24.017Z,24.62
2019-05-23T09:52:52.873Z,25.24
2019-05-23T09:55:22.094Z,24.75
2019-05-23T09:57:50.703Z,26.34
2019-05-23T10:00:21.594Z,25.96
2019-05-23T10:02:50.724Z,24.25
2019-05-23T10:05:19.245Z,25.15
2019-05-23T10:07:47.958Z,25.17
2019-05-23T10:10:17.760Z,25.86
2019-05-23T10:12:46.589Z,25.68
2019-05-23T10:15:33.718Z,26.46
2019-05-23T10:18:02.706Z,26.24
2019-05-23T10:20:33.801Z,25.73
2019-05-23T10:23:03.272Z,26.06
2019-05-23T10:25:33.367Z,26.12
2019-05-23T10:28:08.429Z,27.05
2019-05-23T10:30:37.280Z,25.63
2019-05-23T10:33:11.441Z,24.63
2019-05-23T10:35:37.386Z,25.87
2019-05-23T10:38:06.032Z,25.36
2019-05-23T10:40:34.979Z,23.97
2019-05-23T10:43:03.847Z,24.04
2019-05-23T10:45:32.696Z,23.62
2019-05-23T10:48:01.624Z,23.06
2019-05-23T10:50:43.546Z,23.77
2019-05-23T10:53:00.443Z,22.65
2019-05-23T10:55:29.057Z,21.87
2019-05-23T10:57:57.652Z,21.85
2019-05-23T11:00:27.929Z,21.24
2019-05-23T11:02:56.781Z,21.53
2019-05-23T11:05:25.813Z,21.46
2019-05-23T11:07:54.862Z,21.58
2019-05-23T11:10:24.003Z,21.35
2019-05-23T11:12:54.233Z,21.03
2019-05-23T11:15:22.741Z,20.69
2019-05-23T11:17:53.613Z,20.77
2019-05-23T11:20:22.159Z,20.61
2019-05-23T11:22:50.987Z,20.66
2019-05-23T11:25:20.625Z,20.57
2019-05-23T11:27:49.204Z,20.50
2019-05-23T11:30:34.384Z,20.42
2019-05-23T11:33:02.917Z,20.43
2019-05-23T11:35:31.449Z,20.04
2019-05-23T11:38:01.225Z,20.22
2019-05-23T11:40:33.540Z,20.19
2019-05-23T11:43:00.189Z,20.05
2019-05-23T11:45:30.641Z,19.65
2019-05-23T11:47:59.304Z,20.02
2019-05-23T11:50:28.130Z,20.24
2019-05-23T11:52:57.083Z,20.15
2019-05-23T11:55:26.012Z,19.90
2019-05-23T11:57:54.827Z,19.58
2019-05-23T12:00:54.033Z,19.59
2019-05-23T12:03:22.588Z,19.56
2019-05-23T12:05:51.738Z,19.43
2019-05-23T12:08:20.516Z,19.54
2019-05-23T12:10:49.676Z,19.55
2019-05-23T12:13:18.443Z,19.45
2019-05-23T12:15:49.775Z,19.18
2019-05-23T12:18:18.499Z,19.28
2019-05-23T12:20:47.130Z,19.37
2019-05-23T12:23:15.636Z,19.36
2019-05-23T12:25:44.151Z,19.43
2019-05-23T12:28:13.345Z,19.47
2019-05-23T12:30:42.202Z,19.38
2019-05-23T12:33:10.826Z,19.33
2019-05-23T12:35:39.444Z,19.25
2019-05-23T12:38:08.369Z,19.25
2019-05-23T12:40:36.924Z,19.32
2019-05-23T12:43:05.525Z,19.38
2019-05-23T12:45:34.118Z,19.44
2019-05-23T12:48:07.495Z,19.58
2019-05-23T12:50:40.685Z,19.64
2019-05-23T12:53:11.336Z,19.44
2019-05-23T12:55:39.985Z,19.37
2019-05-23T12:58:08.611Z,19.35
2019-05-23T13:00:42.093Z,19.28
2019-05-23T13:03:13.247Z,19.38
2019-05-23T13:05:42.840Z,19.27
2019-05-23T13:08:11.627Z,19.19
2019-05-23T13:10:40.499Z,19.14
2019-05-23T13:13:10.025Z,19.19
2019-05-23T13:15:38.633Z,19.21
2019-05-23T13:18:07.505Z,19.22
2019-05-23T13:20:37.756Z,19.28
2019-05-23T13:23:07.145Z,19.21
2019-05-23T13:25:36.245Z,19.19
2019-05-23T13:28:06.044Z,19.34
2019-05-23T13:30:34.677Z,19.17
2019-05-23T13:33:04.140Z,19.17
2019-05-23T13:35:33.794Z,19.27
2019-05-23T13:38:02.412Z,19.20
2019-05-23T13:40:31.271Z,19.24
2019-05-23T13:42:59.908Z,19.25
2019-05-23T13:45:28.500Z,19.34
2019-05-23T13:47:57.075Z,19.31
2019-05-23T13:50:26.982Z,19.19
2019-05-23T13:52:55.533Z,19.32
2019-05-23T13:55:24.483Z,19.23
2019-05-23T13:57:53.052Z,19.28
2019-05-23T14:00:22.794Z,19.26
2019-05-23T14:02:51.527Z,19.24
2019-05-23T14:05:20.964Z,19.28
2019-05-23T14:07:49.539Z,19.26
2019-05-23T14:10:18.496Z,19.32
2019-05-23T14:12:47.588Z,19.35
2019-05-23T14:15:21.805Z,19.38
2019-05-23T14:17:50.361Z,19.50
2019-05-23T14:20:21.311Z,19.67
2019-05-23T14:22:51.686Z,19.61
2019-05-23T14:25:20.652Z,19.71
2019-05-23T14:27:50.950Z,19.77
2019-05-23T14:30:21.945Z,19.80
2019-05-23T14:32:58.002Z,19.77
2019-05-23T14:35:30.986Z,19.73
2019-05-23T14:38:01.638Z,19.77
2019-05-23T14:40:33.467Z,19.82
2019-05-23T14:43:06.759Z,19.87
2019-05-23T14:45:55.112Z,19.94
2019-05-23T14:48:25.408Z,20.02
2019-05-23T14:50:58.317Z,20.06
2019-05-23T14:53:29.080Z,20.06
2019-05-23T14:56:00.237Z,20.09
2019-05-23T14:58:29.265Z,19.99
2019-05-23T15:00:59.997Z,19.81
2019-05-23T15:03:29.158Z,19.89
2019-05-23T15:05:58.191Z,19.85
2019-05-23T15:08:27.283Z,19.71
2019-05-23T15:10:55.898Z,19.61
2019-05-23T15:13:24.443Z,19.49
2019-05-23T15:15:52.969Z,19.44
2019-05-23T15:18:21.472Z,19.54
2019-05-23T15:21:11.961Z,19.44
2019-05-23T15:23:40.605Z,19.33
2019-05-23T15:26:22.591Z,19.24
2019-05-23T15:28:39.821Z,19.21
2019-05-23T15:31:08.788Z,19.32
2019-05-23T15:33:37.472Z,19.27
2019-05-23T15:36:06.526Z,19.22
2019-05-23T15:38:35.066Z,19.26
2019-05-23T15:41:03.970Z,19.28
2019-05-23T15:43:32.592Z,19.32
2019-05-23T15:46:01.116Z,19.30
2019-05-23T15:48:29.767Z,19.22
2019-05-23T15:50:58.275Z,19.13
2019-05-23T15:53:37.707Z,19.20
2019-05-23T15:56:28.446Z,19.21
2019-05-23T15:59:12.596Z,19.29
2019-05-23T16:01:55.004Z,19.17
2019-05-23T16:04:25.012Z,19.16
2019-05-23T16:06:54.730Z,19.10
2019-05-23T16:09:29.906Z,19.12
2019-05-23T16:11:54.446Z,19.16
2019-05-23T16:14:23.716Z,19.20
2019-05-23T16:16:56.207Z,19.15
2019-05-23T16:19:23.408Z,19.22
2019-05-23T16:21:52.308Z,19.22
2019-05-23T16:24:21.371Z,19.21
2019-05-23T16:26:50.091Z,19.17
2019-05-23T16:29:19.448Z,19.19
2019-05-23T16:31:48.163Z,19.20
2019-05-23T16:34:16.780Z,19.24
2019-05-23T16:36:45.349Z,19.32
2019-05-23T16:39:14.085Z,19.30
2019-05-23T16:41:42.578Z,19.32
2019-05-23T16:44:11.206Z,19.29
2019-05-23T16:46:40.058Z,19.30
2019-05-23T16:49:08.698Z,19.32
2019-05-23T16:51:37.451Z,19.28
2019-05-23T16:54:06.620Z,19.26
2019-05-23T16:56:37.114Z,19.23
2019-05-23T16:59:22.568Z,19.22
2019-05-23T17:02:04.961Z,19.19
2019-05-23T17:04:28.173Z,19.18
2019-05-23T17:06:58.454Z,19.17
2019-05-23T17:09:32.263Z,19.12
2019-05-23T17:12:12.323Z,19.09
2019-05-23T17:14:55.089Z,19.06
2019-05-23T17:17:57.009Z,19.05
2019-05-23T17:20:19.764Z,19.05
2019-05-23T17:23:03.221Z,19.05
2019-05-23T17:25:39.147Z,19.05
2019-05-23T17:28:12.175Z,18.95
2019-05-23T17:30:59.013Z,18.90
2019-05-23T17:33:29.279Z,18.90
2019-05-23T17:35:57.794Z,18.88
2019-05-23T17:38:26.495Z,18.92
2019-05-23T17:40:55.443Z,18.90
2019-05-23T17:43:24.207Z,18.82
2019-05-23T17:45:52.779Z,18.86
2019-05-23T17:48:21.255Z,18.82
2019-05-23T17:50:49.754Z,18.81
2019-05-23T17:53:18.580Z,18.81
2019-05-23T17:55:47.179Z,18.83
2019-05-23T17:58:17.506Z,18.76
2019-05-23T18:00:47.679Z,18.74
2019-05-23T18:03:16.645Z,18.74
2019-05-23T18:05:45.310Z,18.71
2019-05-23T18:08:15.176Z,18.74
2019-05-23T18:10:46.300Z,18.65
2019-05-23T18:13:15.341Z,18.59
2019-05-23T18:15:44.538Z,18.53
2019-05-23T18:18:13.570Z,18.55
2019-05-23T18:20:43.038Z,18.56
2019-05-23T18:23:11.771Z,18.56
2019-05-23T18:25:41.492Z,18.56
2019-05-23T18:28:12.304Z,18.53
2019-05-23T18:30:56.785Z,18.47
2019-05-23T18:33:25.612Z,18.44
2019-05-23T18:35:56.279Z,18.43
2019-05-23T18:38:25.276Z,18.44
2019-05-23T18:41:04.017Z,18.35
2019-05-23T18:43:26.027Z,18.32
2019-05-23T18:45:56.126Z,18.36
2019-05-23T18:48:24.659Z,18.35
2019-05-23T18:50:53.390Z,18.29
2019-05-23T18:53:22.764Z,18.30
2019-05-23T18:55:51.817Z,18.21
2019-05-23T18:58:20.678Z,18.20
2019-05-23T19:00:57.099Z,18.18
2019-05-23T19:03:26.132Z,18.13
2019-05-23T19:05:54.794Z,18.12
2019-05-23T19:08:23.466Z,18.14
2019-05-23T19:10:52.558Z,18.09
2019-05-23T19:13:21.118Z,18.05
2019-05-23T19:15:50.120Z,17.99
2019-05-23T19:18:18.967Z,17.93
2019-05-23T19:20:54.462Z,17.90
2019-05-23T19:23:21.998Z,17.81
2019-05-23T19:25:50.486Z,17.85
2019-05-23T19:28:20.420Z,17.79
2019-05-23T19:30:49.091Z,17.80
2019-05-23T19:33:18.196Z,17.74
2019-05-23T19:35:47.666Z,17.64
2019-05-23T19:38:18.634Z,17.64
2019-05-23T19:40:47.459Z,17.56
2019-05-23T19:43:17.760Z,17.54
2019-05-23T19:45:47.113Z,17.53
2019-05-23T19:48:15.912Z,17.48
2019-05-23T19:50:44.418Z,17.51
2019-05-23T19:53:13.210Z,17.50
2019-05-23T19:55:42.120Z,17.48
2019-05-23T19:58:11.221Z,17.40
2019-05-23T20:00:40.882Z,17.37
2019-05-23T20:03:09.818Z,17.31
2019-05-23T20:05:58.288Z,17.32
2019-05-23T20:08:26.772Z,17.37
2019-05-23T20:10:55.463Z,17.29
2019-05-23T20:13:24.760Z,17.29
2019-05-23T20:15:53.405Z,17.26
2019-05-23T20:18:22.200Z,17.24
2019-05-23T20:20:51.434Z,17.19
2019-05-23T20:23:21.265Z,17.23
2019-05-23T20:25:49.986Z,17.15
2019-05-23T20:28:18.634Z,17.18
2019-05-23T20:30:54.093Z,17.13
2019-05-23T20:33:22.788Z,17.13
2019-05-23T20:35:51.498Z,17.10
2019-05-23T20:38:20.105Z,17.05
2019-05-23T20:40:54.932Z,17.01
2019-05-23T20:43:23.481Z,17.05
2019-05-23T20:45:51.965Z,16.94
2019-05-23T20:48:20.874Z,16.84
2019-05-23T20:50:49.530Z,16.87
2019-05-23T20:53:18.082Z,16.76
2019-05-23T20:55:46.705Z,16.72
2019-05-23T20:58:16.071Z,16.68
2019-05-23T21:00:46.389Z,16.65
2019-05-23T21:03:14.894Z,16.59
2019-05-23T21:05:43.385Z,16.63
2019-05-23T21:08:12.021Z,16.54
2019-05-23T21:10:46.340Z,16.43
2019-05-23T21:13:15.050Z,16.46
2019-05-23T21:15:43.871Z,16.39
2019-05-23T21:18:13.078Z,16.42
2019-05-23T21:20:42.027Z,16.39
2019-05-23T21:23:10.671Z,16.21
2019-05-23T21:25:40.897Z,16.33
2019-05-23T21:28:10.132Z,16.27
2019-05-23T21:30:38.645Z,16.26
2019-05-23T21:33:07.254Z,16.16
2019-05-23T21:35:35.842Z,16.20
2019-05-23T21:38:04.532Z,16.17
2019-05-23T21:40:36.120Z,16.12
2019-05-23T21:43:05.472Z,16.06
2019-05-23T21:45:34.621Z,15.96
2019-05-23T21:48:03.509Z,15.97
2019-05-23T21:50:32.259Z,15.91
2019-05-23T21:53:00.770Z,15.83
2019-05-23T21:55:43.242Z,15.76
2019-05-23T21:58:13.693Z,15.68
2019-05-23T22:01:07.959Z,15.74
2019-05-23T22:03:54.394Z,15.71
2019-05-23T22:06:28.663Z,15.64
2019-05-23T22:08:57.593Z,15.70
2019-05-23T22:11:26.442Z,15.60
2019-05-23T22:13:54.953Z,15.66
2019-05-23T22:16:23.992Z,15.64
2019-05-23T22:18:52.636Z,15.59
2019-05-23T22:21:21.753Z,15.54
2019-05-23T22:23:50.487Z,15.53
2019-05-23T22:26:19.253Z,15.45
2019-05-23T22:28:48.506Z,15.46
2019-05-23T22:31:17.364Z,15.42
2019-05-23T22:36:43.637Z,15.37
2019-05-23T22:39:12.275Z,15.36
2019-05-23T22:41:40.793Z,15.26
2019-05-23T22:44:09.549Z,15.25
2019-05-23T22:46:38.797Z,15.15
2019-05-23T22:49:07.511Z,15.13
2019-05-23T22:51:36.045Z,15.12
2019-05-23T22:54:04.757Z,15.17
2019-05-23T22:56:33.255Z,15.07
2019-05-23T22:59:01.734Z,15.01
2019-05-23T23:01:30.919Z,14.91
2019-05-23T23:03:59.468Z,14.93
2019-05-23T23:06:28.811Z,15.00
2019-05-23T23:08:57.472Z,14.95
2019-05-23T23:11:25.962Z,14.92
2019-05-23T23:13:54.483Z,14.68
2019-05-23T23:16:22.954Z,14.58
2019-05-23T23:18:52.183Z,14.71
2019-05-23T23:21:20.677Z,14.74
2019-05-23T23:23:49.195Z,14.75
2019-05-23T23:26:17.808Z,14.73
2019-05-23T23:28:46.302Z,14.68
2019-05-23T23:31:14.915Z,14.62
2019-05-23T23:33:43.494Z,14.54
2019-05-23T23:36:11.980Z,14.44
2019-05-23T23:38:40.463Z,14.42
2019-05-23T23:41:09.007Z,14.43
2019-05-23T23:43:37.526Z,14.46
2019-05-23T23:46:24.067Z,14.37
2019-05-23T23:52:02.278Z,14.42
2019-05-23T23:54:48.763Z,14.36
2019-05-23T23:57:35.638Z,14.32
